Time;durP1;ratioP1;P1;durP2;ratioP2;P2;SDS_P1;SDS_P2;PMS_P1;PMS_P2;Temp;Humidity;BMP_temperature;BMP_pressure;BME280_temperature;BME280_humidity;BME280_pressure;Samples;Min_cycle;Max_cycle;Signal;HPM_P1;HPM_P2
2022/10/27 00:02:22;;;;;;;11.35;5.78;;;13.70;99.90;;;;;;4937247;28;20047;-91
2022/10/27 00:04:48;;;;;;;13.23;6.22;;;13.60;99.90;;;;;;4953536;28;20059;-91
2022/10/27 00:07:13;;;;;;;13.05;6.13;;;13.60;99.90;;;;;;4925975;28;20035;-91
2022/10/27 00:09:39;;;;;;;10.27;6.00;;;13.60;99.90;;;;;;4940860;28;20083;-91
2022/10/27 00:12:05;;;;;;;14.68;5.97;;;13.50;99.90;;;;;;4920977;28;20046;-91
2022/10/27 00:14:30;;;;;;;9.55;6.20;;;13.50;99.90;;;;;;4955233;28;20039;-91
2022/10/27 00:16:56;;;;;;;11.57;6.25;;;13.50;99.90;;;;;;4941721;28;20094;-91
2022/10/27 00:19:25;;;;;;;11.45;5.80;;;13.50;99.90;;;;;;4959621;28;20081;-90
2022/10/27 00:21:51;;;;;;;11.50;5.82;;;13.40;99.90;;;;;;4969596;28;20043;-91
2022/10/27 00:24:18;;;;;;;11.05;5.82;;;13.40;99.90;;;;;;4957188;28;20070;-91
2022/10/27 00:26:44;;;;;;;13.32;6.07;;;13.40;99.90;;;;;;4962750;28;20040;-90
2022/10/27 00:29:09;;;;;;;14.82;6.20;;;13.40;99.90;;;;;;4941741;28;20587;-91
2022/10/27 00:31:35;;;;;;;14.13;6.70;;;13.40;99.90;;;;;;4939221;28;20043;-90
2022/10/27 00:34:01;;;;;;;13.43;6.07;;;13.40;99.90;;;;;;4975941;28;20504;-90
2022/10/27 00:36:27;;;;;;;9.93;6.20;;;13.30;99.90;;;;;;4972393;28;20031;-90
2022/10/27 00:38:54;;;;;;;9.98;6.07;;;13.30;99.90;;;;;;4935209;28;20095;-90
2022/10/27 00:41:25;;;;;;;16.23;6.47;;;13.30;99.90;;;;;;4940825;28;20035;-91
2022/10/27 00:43:50;;;;;;;10.38;6.50;;;13.30;99.90;;;;;;4959777;28;20066;-90
2022/10/27 00:46:36;;;;;;;11.52;6.18;;;13.40;99.90;;;;;;4954131;28;20208;-91
2022/10/27 00:49:12;;;;;;;14.00;7.05;;;13.40;99.90;;;;;;4976882;28;20069;-90
2022/10/27 00:51:41;;;;;;;15.15;6.93;;;13.40;99.90;;;;;;4989850;28;20050;-91
2022/10/27 00:54:07;;;;;;;15.32;6.93;;;13.40;99.90;;;;;;4955541;28;20035;-90
2022/10/27 00:56:33;;;;;;;12.60;7.07;;;13.50;99.90;;;;;;4940172;28;20428;-90
2022/10/27 00:58:59;;;;;;;11.32;6.78;;;13.60;99.90;;;;;;4941852;28;20492;-91
2022/10/27 01:01:26;;;;;;;14.70;7.30;;;13.60;99.90;;;;;;4939256;28;20074;-91
2022/10/27 01:03:52;;;;;;;15.02;7.22;;;13.60;99.90;;;;;;4920905;28;20047;-91
2022/10/27 01:06:18;;;;;;;14.43;7.07;;;13.60;99.90;;;;;;4942806;28;20181;-91
2022/10/27 01:08:45;;;;;;;13.63;7.30;;;13.60;99.90;;;;;;4941522;28;20122;-91
2022/10/27 01:11:11;;;;;;;12.07;6.93;;;13.70;99.90;;;;;;4954982;28;20046;-91
2022/10/27 01:13:37;;;;;;;15.52;7.63;;;13.70;99.90;;;;;;4943672;28;20070;-91
2022/10/27 01:16:26;;;;;;;13.30;6.88;;;13.70;99.90;;;;;;4936622;28;20493;-91
2022/10/27 01:18:57;;;;;;;9.23;6.18;;;13.80;99.90;;;;;;4968865;28;20118;-91
2022/10/27 01:21:44;;;;;;;14.85;7.10;;;13.80;99.90;;;;;;4966857;28;20043;-91
2022/10/27 01:24:35;;;;;;;11.35;6.70;;;13.80;99.90;;;;;;4957261;28;20061;-91
2022/10/27 01:27:23;;;;;;;12.73;6.65;;;13.80;99.90;;;;;;4965707;28;20512;-91
2022/10/27 01:29:51;;;;;;;12.50;6.78;;;13.80;99.90;;;;;;4964648;28;20236;-91
2022/10/27 01:32:32;;;;;;;11.65;7.30;;;13.90;99.90;;;;;;4954528;28;20097;-90
2022/10/27 01:35:23;;;;;;;13.35;8.02;;;13.90;99.90;;;;;;4961020;28;20617;-91
2022/10/27 01:38:07;;;;;;;12.55;6.82;;;13.90;99.90;;;;;;4955595;28;20043;-91
2022/10/27 01:40:57;;;;;;;13.38;6.90;;;13.90;99.90;;;;;;4962447;28;20035;-91
2022/10/27 01:43:25;;;;;;;11.38;6.88;;;13.90;99.90;;;;;;4953641;28;20037;-91
2022/10/27 01:45:53;;;;;;;12.52;7.05;;;13.90;99.90;;;;;;4940091;28;20481;-91
2022/10/27 01:48:19;;;;;;;20.08;7.35;;;13.80;99.90;;;;;;4955435;28;20043;-91
2022/10/27 01:50:45;;;;;;;15.25;7.45;;;13.80;99.90;;;;;;4977242;28;20051;-91
2022/10/27 01:53:11;;;;;;;14.52;7.53;;;13.80;99.90;;;;;;4959174;28;20413;-91
2022/10/27 01:56:02;;;;;;;13.80;7.25;;;13.70;99.90;;;;;;4975530;28;20445;-91
2022/10/27 01:58:56;;;;;;;12.77;7.45;;;13.70;99.90;;;;;;4960448;28;20367;-91
2022/10/27 02:01:43;;;;;;;13.43;7.10;;;13.60;99.90;;;;;;4953416;28;20042;-91
2022/10/27 02:04:18;;;;;;;13.55;7.97;;;13.60;99.90;;;;;;4955188;28;20116;-91
2022/10/27 02:06:52;;;;;;;13.02;7.50;;;13.60;99.90;;;;;;4971947;28;20053;-91
2022/10/27 02:09:37;;;;;;;13.05;7.65;;;13.50;99.90;;;;;;4961740;28;20050;-91
2022/10/27 02:12:08;;;;;;;13.93;8.18;;;13.60;99.90;;;;;;4959812;28;20516;-91
2022/10/27 02:14:35;;;;;;;14.23;8.37;;;13.60;99.90;;;;;;4958789;28;20035;-90
2022/10/27 02:17:02;;;;;;;16.58;8.98;;;13.50;99.90;;;;;;4928106;28;20041;-91
2022/10/27 02:19:35;;;;;;;16.13;8.38;;;13.50;99.90;;;;;;4947530;28;20523;-91
2022/10/27 02:22:03;;;;;;;13.50;8.85;;;13.60;99.90;;;;;;4975159;28;20038;-91
2022/10/27 02:24:30;;;;;;;13.02;8.50;;;13.60;99.90;;;;;;4956736;28;20091;-90
2022/10/27 02:27:07;;;;;;;21.48;9.35;;;13.60;99.90;;;;;;4942504;28;20105;-91
2022/10/27 02:29:44;;;;;;;16.65;8.82;;;13.60;99.90;;;;;;4957203;28;20058;-90
2022/10/27 02:32:14;;;;;;;16.50;9.48;;;13.60;99.90;;;;;;4955070;28;20047;-91
2022/10/27 02:34:42;;;;;;;14.95;8.38;;;13.60;99.90;;;;;;4968756;28;20120;-91
2022/10/27 02:37:08;;;;;;;14.85;8.90;;;13.60;99.90;;;;;;4957023;28;20066;-91
2022/10/27 02:39:34;;;;;;;15.07;9.10;;;13.50;99.90;;;;;;4928339;28;20043;-91
2022/10/27 02:42:02;;;;;;;18.88;9.43;;;13.50;99.90;;;;;;4961430;28;20039;-91
2022/10/27 02:44:28;;;;;;;17.73;8.50;;;13.50;99.90;;;;;;4935023;28;20228;-91
2022/10/27 02:46:53;;;;;;;14.82;8.40;;;13.40;99.90;;;;;;4936954;28;20039;-91
2022/10/27 02:49:19;;;;;;;12.00;8.55;;;13.40;99.90;;;;;;4943831;28;20067;-91
2022/10/27 02:51:45;;;;;;;13.55;9.00;;;13.30;99.90;;;;;;4936508;28;20363;-90
2022/10/27 02:54:10;;;;;;;14.52;8.68;;;13.30;99.90;;;;;;4953481;28;20050;-91
2022/10/27 02:56:36;;;;;;;17.35;8.85;;;13.30;99.90;;;;;;4959492;28;20054;-90
2022/10/27 02:59:02;;;;;;;14.93;8.80;;;13.20;99.90;;;;;;4942333;28;20042;-90
2022/10/27 03:01:27;;;;;;;13.07;8.52;;;13.10;99.90;;;;;;4943855;28;20038;-91
2022/10/27 03:03:53;;;;;;;11.38;8.43;;;13.10;99.90;;;;;;4939667;28;20047;-91
2022/10/27 03:06:19;;;;;;;14.50;8.45;;;13.00;99.90;;;;;;4939801;28;20042;-91
2022/10/27 03:08:44;;;;;;;12.98;8.65;;;13.00;99.90;;;;;;4926167;28;20109;-90
2022/10/27 03:11:10;;;;;;;21.85;10.40;;;13.00;99.90;;;;;;4972400;28;20043;-91
2022/10/27 03:13:36;;;;;;;10.52;7.95;;;12.90;99.90;;;;;;4939296;28;20043;-91
2022/10/27 03:16:01;;;;;;;13.02;8.75;;;12.80;99.90;;;;;;4959263;28;20049;-91
2022/10/27 03:18:27;;;;;;;14.63;8.35;;;12.80;99.90;;;;;;4941381;28;20067;-91
2022/10/27 03:20:53;;;;;;;16.27;8.90;;;12.80;99.90;;;;;;4970449;28;20463;-91
2022/10/27 03:23:18;;;;;;;13.95;8.70;;;12.80;99.90;;;;;;4936938;28;20035;-91
2022/10/27 03:25:44;;;;;;;16.13;9.20;;;12.70;99.90;;;;;;4941904;28;20043;-91
2022/10/27 03:28:11;;;;;;;18.10;8.70;;;12.70;99.90;;;;;;4957982;28;20046;-91
2022/10/27 03:30:37;;;;;;;11.88;9.15;;;12.70;99.90;;;;;;4940023;28;20039;-90
2022/10/27 03:33:04;;;;;;;12.27;8.80;;;12.60;99.90;;;;;;4942049;28;20035;-90
2022/10/27 03:35:29;;;;;;;14.80;8.95;;;12.60;99.90;;;;;;4941305;28;20071;-90
2022/10/27 03:37:57;;;;;;;15.95;10.02;;;12.60;99.90;;;;;;4938188;28;20043;-90
2022/10/27 03:40:23;;;;;;;20.27;9.88;;;12.50;99.90;;;;;;4957949;28;20110;-90
2022/10/27 03:42:48;;;;;;;16.52;9.15;;;12.50;99.90;;;;;;4953036;28;20027;-90
2022/10/27 03:45:14;;;;;;;17.38;10.05;;;12.50;99.90;;;;;;4943161;28;20037;-91
2022/10/27 03:47:40;;;;;;;16.10;9.50;;;12.50;99.90;;;;;;4955636;28;20097;-91
2022/10/27 03:50:06;;;;;;;14.00;9.40;;;12.40;99.90;;;;;;4928004;28;20473;-91
2022/10/27 03:52:32;;;;;;;13.27;8.82;;;12.40;99.90;;;;;;4951273;28;20034;-90
2022/10/27 03:54:58;;;;;;;14.80;9.93;;;12.40;99.90;;;;;;4958690;28;20039;-91
2022/10/27 03:57:23;;;;;;;13.93;8.23;;;12.30;99.90;;;;;;4951829;28;20452;-90
2022/10/27 03:59:49;;;;;;;13.15;9.50;;;12.30;99.90;;;;;;4943095;28;20042;-91
2022/10/27 04:02:16;;;;;;;11.40;8.23;;;12.30;99.90;;;;;;4942559;28;20122;-91
2022/10/27 04:04:42;;;;;;;16.50;9.10;;;12.20;99.90;;;;;;4957118;28;20054;-91
2022/10/27 04:07:09;;;;;;;17.15;9.32;;;12.20;99.90;;;;;;4956238;28;20135;-91
2022/10/27 04:09:34;;;;;;;15.63;8.98;;;12.20;99.90;;;;;;4957320;28;20104;-90
2022/10/27 04:12:00;;;;;;;19.85;9.30;;;12.20;99.90;;;;;;4941935;28;20046;-91
2022/10/27 04:14:26;;;;;;;14.75;9.00;;;12.20;99.90;;;;;;4958122;28;20122;-91
2022/10/27 04:16:52;;;;;;;16.95;9.10;;;12.20;99.90;;;;;;4942571;28;20039;-92
2022/10/27 04:19:18;;;;;;;13.65;9.25;;;12.20;99.90;;;;;;4941320;28;20034;-91
2022/10/27 04:21:44;;;;;;;21.05;9.80;;;12.20;99.90;;;;;;4945401;28;20567;-91
2022/10/27 04:24:10;;;;;;;15.55;9.52;;;12.20;99.90;;;;;;4972742;28;20063;-91
2022/10/27 04:26:36;;;;;;;17.23;9.73;;;12.20;99.90;;;;;;4960039;28;20035;-91
2022/10/27 04:29:02;;;;;;;12.93;9.25;;;12.20;99.90;;;;;;4959540;28;20039;-91
2022/10/27 04:31:28;;;;;;;17.38;9.02;;;12.20;99.90;;;;;;4937851;28;20042;-90
2022/10/27 04:33:53;;;;;;;13.45;9.32;;;12.30;99.90;;;;;;4977465;28;20070;-90
2022/10/27 04:36:19;;;;;;;17.60;9.85;;;12.20;99.90;;;;;;4933959;28;20071;-91
2022/10/27 04:38:48;;;;;;;13.60;9.40;;;12.30;99.90;;;;;;4932631;28;20039;-91
2022/10/27 04:41:14;;;;;;;17.20;9.45;;;12.20;99.90;;;;;;4955705;28;20122;-91
2022/10/27 04:43:40;;;;;;;14.73;9.32;;;12.20;99.90;;;;;;4945863;28;20066;-91
2022/10/27 04:46:05;;;;;;;17.10;10.20;;;12.20;99.90;;;;;;4977322;28;20035;-91
2022/10/27 04:48:31;;;;;;;21.95;10.88;;;12.20;99.90;;;;;;4949100;28;20038;-91
2022/10/27 04:50:57;;;;;;;12.98;9.80;;;12.20;99.90;;;;;;4957552;28;20046;-91
2022/10/27 04:53:22;;;;;;;18.23;10.02;;;12.20;99.90;;;;;;4948567;28;20054;-90
2022/10/27 04:55:50;;;;;;;19.15;10.30;;;12.20;99.90;;;;;;4939734;28;20122;-91
2022/10/27 04:58:16;;;;;;;16.92;10.70;;;12.20;99.90;;;;;;4934636;29;20047;-91
2022/10/27 05:00:41;;;;;;;14.27;9.40;;;12.40;99.90;;;;;;4957284;28;20864;-91
2022/10/27 05:03:08;;;;;;;20.65;11.68;;;12.30;99.90;;;;;;4971492;28;20035;-91
2022/10/27 05:05:34;;;;;;;20.98;11.13;;;12.30;99.90;;;;;;4959501;28;20050;-91
2022/10/27 05:08:02;;;;;;;21.15;11.70;;;12.30;99.90;;;;;;4958978;28;20114;-91
2022/10/27 05:10:29;;;;;;;18.58;12.20;;;12.30;99.90;;;;;;4975297;28;20038;-90
2022/10/27 05:12:54;;;;;;;18.50;12.23;;;12.30;99.90;;;;;;4945616;28;20112;-91
2022/10/27 05:15:20;;;;;;;20.95;11.65;;;12.40;99.90;;;;;;4959657;28;20105;-88
2022/10/27 05:17:46;;;;;;;19.65;12.32;;;12.40;99.90;;;;;;4966240;28;20042;-90
2022/10/27 05:20:12;;;;;;;20.95;11.27;;;12.40;99.90;;;;;;4951197;28;20248;-88
2022/10/27 05:22:38;;;;;;;22.02;10.93;;;12.40;99.90;;;;;;4951568;28;20036;-88
2022/10/27 05:25:06;;;;;;;20.48;11.02;;;12.40;99.90;;;;;;4952094;28;20042;-90
2022/10/27 05:27:31;;;;;;;16.20;11.05;;;12.40;99.90;;;;;;4956972;28;20039;-90
2022/10/27 05:29:57;;;;;;;20.25;11.48;;;12.50;99.90;;;;;;4948287;28;20050;-90
2022/10/27 05:32:26;;;;;;;20.90;10.82;;;12.60;99.90;;;;;;4935253;28;20035;-89
2022/10/27 05:34:52;;;;;;;23.08;11.52;;;12.50;99.90;;;;;;4952258;28;20139;-89
2022/10/27 05:37:18;;;;;;;18.58;11.10;;;12.50;99.90;;;;;;4952203;28;20047;-89
2022/10/27 05:39:43;;;;;;;16.25;10.15;;;12.50;99.90;;;;;;4966584;28;20394;-89
2022/10/27 05:42:09;;;;;;;18.20;10.68;;;12.50;99.90;;;;;;4953447;28;20034;-92
2022/10/27 05:44:35;;;;;;;17.15;10.13;;;12.50;99.90;;;;;;4941124;28;20038;-92
2022/10/27 05:47:00;;;;;;;21.73;10.13;;;12.60;99.90;;;;;;4946968;28;20043;-90
2022/10/27 05:49:29;;;;;;;16.63;10.40;;;12.60;99.90;;;;;;4965898;28;20042;-91
2022/10/27 05:51:57;;;;;;;17.67;10.60;;;12.60;99.90;;;;;;4936317;28;20046;-91
2022/10/27 05:54:23;;;;;;;15.60;10.65;;;12.60;99.90;;;;;;4939114;28;20039;-90
2022/10/27 05:56:50;;;;;;;23.52;10.82;;;12.60;99.90;;;;;;4937220;28;20035;-90
2022/10/27 05:59:16;;;;;;;18.10;10.18;;;12.60;99.90;;;;;;4954143;28;20158;-90
2022/10/27 06:01:42;;;;;;;19.33;9.93;;;12.60;99.90;;;;;;4941551;28;20046;-90
2022/10/27 06:04:08;;;;;;;15.07;10.10;;;12.60;99.90;;;;;;4935945;28;20157;-90
2022/10/27 06:06:34;;;;;;;18.73;9.68;;;12.60;99.90;;;;;;4949852;28;20042;-90
2022/10/27 06:08:59;;;;;;;16.35;10.05;;;12.60;99.90;;;;;;4917277;28;20040;-90
2022/10/27 06:11:25;;;;;;;19.13;10.00;;;12.60;99.90;;;;;;4937518;28;20045;-89
2022/10/27 06:13:52;;;;;;;18.25;10.00;;;12.60;99.90;;;;;;4952210;28;20369;-91
2022/10/27 06:16:22;;;;;;;20.70;11.45;;;12.60;99.90;;;;;;4939437;28;20721;-93
2022/10/27 06:18:47;;;;;;;15.90;10.27;;;12.70;99.90;;;;;;4942240;28;20047;-93
2022/10/27 06:21:14;;;;;;;21.05;10.68;;;12.70;99.90;;;;;;4941532;28;20563;-90
2022/10/27 06:23:40;;;;;;;18.05;10.57;;;12.70;99.90;;;;;;4952415;28;20046;-91
2022/10/27 06:26:07;;;;;;;18.55;10.05;;;12.70;99.90;;;;;;4935229;28;20047;-91
2022/10/27 06:28:33;;;;;;;17.42;10.43;;;12.60;99.90;;;;;;4974386;28;20043;-92
2022/10/27 06:30:58;;;;;;;16.55;9.93;;;12.60;99.90;;;;;;4935945;28;20524;-91
2022/10/27 06:33:24;;;;;;;20.33;10.38;;;12.60;99.90;;;;;;4953187;28;20115;-90
2022/10/27 06:35:50;;;;;;;17.17;10.27;;;12.60;99.90;;;;;;4972821;28;20058;-88
2022/10/27 06:38:15;;;;;;;20.15;9.77;;;12.60;99.90;;;;;;4944586;28;20047;-88
2022/10/27 06:40:45;;;;;;;15.82;9.52;;;12.60;99.90;;;;;;4952664;28;20484;-88
2022/10/27 06:43:12;;;;;;;13.82;9.25;;;12.70;99.90;;;;;;4949196;28;20495;-91
2022/10/27 06:45:38;;;;;;;20.73;9.50;;;12.60;99.90;;;;;;4977487;28;20093;-88
2022/10/27 06:48:06;;;;;;;18.67;10.35;;;12.60;99.90;;;;;;4948835;28;20039;-87
2022/10/27 06:50:32;;;;;;;16.75;9.93;;;12.70;99.90;;;;;;4939043;28;20497;-88
2022/10/27 06:53:00;;;;;;;12.68;9.10;;;12.60;99.90;;;;;;4929982;28;20039;-88
2022/10/27 06:55:26;;;;;;;18.77;10.60;;;12.60;99.90;;;;;;4954448;28;20039;-88
2022/10/27 06:57:52;;;;;;;15.10;10.35;;;12.70;99.90;;;;;;4925034;28;20050;-88
2022/10/27 07:00:18;;;;;;;18.52;10.48;;;12.70;99.90;;;;;;4937692;28;20045;-88
2022/10/27 07:02:43;;;;;;;15.13;10.07;;;12.70;99.90;;;;;;4964057;28;20049;-88
2022/10/27 07:05:09;;;;;;;16.65;9.95;;;12.80;99.90;;;;;;4929513;28;20052;-88
2022/10/27 07:07:35;;;;;;;18.75;11.68;;;12.80;99.90;;;;;;4949688;28;20053;-88
2022/10/27 07:10:01;;;;;;;19.95;10.75;;;12.90;99.90;;;;;;4948144;28;20046;-88
2022/10/27 07:12:27;;;;;;;15.80;11.10;;;12.90;99.90;;;;;;4962004;28;20122;-88
2022/10/27 07:14:53;;;;;;;16.80;10.82;;;13.00;99.90;;;;;;4957911;28;20062;-88
2022/10/27 07:17:19;;;;;;;15.50;10.18;;;13.00;99.90;;;;;;4926080;28;20090;-88
2022/10/27 07:19:44;;;;;;;17.42;10.27;;;13.00;99.90;;;;;;4968933;28;20066;-88
2022/10/27 07:22:10;;;;;;;17.67;9.77;;;13.00;99.90;;;;;;4939115;28;20039;-88
2022/10/27 07:24:36;;;;;;;16.45;10.27;;;13.00;99.90;;;;;;4936227;28;20408;-88
2022/10/27 07:27:01;;;;;;;18.15;9.80;;;13.10;99.90;;;;;;4958418;28;20035;-88
2022/10/27 07:29:27;;;;;;;17.50;9.80;;;13.00;99.90;;;;;;4944641;28;20082;-88
2022/10/27 07:31:53;;;;;;;19.08;11.05;;;13.10;99.90;;;;;;4961821;28;20035;-88
2022/10/27 07:34:18;;;;;;;15.73;9.48;;;13.20;99.90;;;;;;4948841;28;20057;-89
2022/10/27 07:36:45;;;;;;;14.60;9.75;;;13.20;99.90;;;;;;4934579;28;20106;-89
2022/10/27 07:39:11;;;;;;;17.27;9.98;;;13.20;99.90;;;;;;4967539;28;20050;-88
2022/10/27 07:41:36;;;;;;;19.33;10.30;;;13.30;99.90;;;;;;4958243;28;20035;-89
2022/10/27 07:44:02;;;;;;;20.23;10.38;;;13.30;99.90;;;;;;4968295;28;20039;-91
2022/10/27 07:46:28;;;;;;;14.50;9.45;;;13.40;99.90;;;;;;4936637;28;20041;-89
2022/10/27 07:48:54;;;;;;;16.75;9.73;;;13.40;99.90;;;;;;4955200;28;20038;-90
2022/10/27 07:51:20;;;;;;;18.10;10.32;;;13.40;99.90;;;;;;4925850;28;20129;-88
2022/10/27 07:53:45;;;;;;;16.13;9.25;;;13.50;99.90;;;;;;4941837;28;20039;-88
2022/10/27 07:56:11;;;;;;;15.00;9.55;;;13.50;99.90;;;;;;4958957;28;20041;-88
2022/10/27 07:58:37;;;;;;;16.50;9.77;;;13.50;99.90;;;;;;4943468;28;20031;-88
2022/10/27 08:01:04;;;;;;;16.02;10.40;;;13.60;99.90;;;;;;4966826;28;20098;-89
2022/10/27 08:03:30;;;;;;;14.23;9.50;;;13.60;99.90;;;;;;4939082;28;20117;-92
2022/10/27 08:06:04;;;;;;;19.52;9.95;;;13.60;99.90;;;;;;4943584;28;20062;-92
2022/10/27 08:08:31;;;;;;;17.85;9.30;;;13.60;99.90;;;;;;4987542;28;20043;-91
2022/10/27 08:10:57;;;;;;;15.98;8.90;;;13.60;99.90;;;;;;4945648;28;20054;-92
2022/10/27 08:13:23;;;;;;;13.65;9.43;;;13.70;99.90;;;;;;4960603;28;20042;-92
2022/10/27 08:15:48;;;;;;;13.10;9.02;;;13.70;99.90;;;;;;4928775;28;20539;-91
2022/10/27 08:18:14;;;;;;;14.10;9.23;;;13.80;99.90;;;;;;4951847;28;20043;-91
2022/10/27 08:20:44;;;;;;;13.48;8.90;;;13.80;99.90;;;;;;4934862;28;20066;-90
2022/10/27 08:23:12;;;;;;;16.50;9.07;;;13.90;99.90;;;;;;4973314;28;20031;-89
2022/10/27 08:25:38;;;;;;;15.90;9.30;;;14.00;99.90;;;;;;4949854;28;20035;-89
2022/10/27 08:28:05;;;;;;;12.30;9.15;;;14.10;99.90;;;;;;4936417;28;20045;-89
2022/10/27 08:30:32;;;;;;;18.48;9.23;;;14.20;99.90;;;;;;4954900;28;20050;-90
2022/10/27 08:33:00;;;;;;;21.58;9.23;;;14.20;99.90;;;;;;4953163;28;20445;-89
2022/10/27 08:35:27;;;;;;;13.23;8.13;;;14.20;99.90;;;;;;4986986;28;20045;-90
2022/10/27 08:37:59;;;;;;;13.68;8.77;;;14.30;99.90;;;;;;4937236;28;20735;-89
2022/10/27 08:40:41;;;;;;;12.15;8.15;;;14.30;99.90;;;;;;4982897;28;20416;-90
2022/10/27 08:43:32;;;;;;;15.77;8.35;;;14.30;99.90;;;;;;4976371;28;20071;-90
2022/10/27 08:46:13;;;;;;;11.20;8.00;;;14.30;99.90;;;;;;4944645;28;20038;-88
2022/10/27 08:48:39;;;;;;;12.38;8.38;;;14.30;99.90;;;;;;4941375;28;20074;-89
2022/10/27 08:51:12;;;;;;;15.20;7.50;;;14.30;99.90;;;;;;4954595;28;20089;-87
2022/10/27 08:53:38;;;;;;;14.50;8.05;;;14.30;99.90;;;;;;4968355;28;20106;-90
2022/10/27 08:56:10;;;;;;;12.95;8.07;;;14.40;99.90;;;;;;4960522;28;20039;-91
2022/10/27 08:58:37;;;;;;;11.52;7.50;;;14.30;99.90;;;;;;4937775;28;20039;-91
2022/10/27 09:01:17;;;;;;;24.95;8.25;;;14.30;99.90;;;;;;4947967;28;20054;-91
2022/10/27 09:03:43;;;;;;;12.30;7.20;;;14.30;99.90;;;;;;4960333;28;20128;-91
2022/10/27 09:06:18;;;;;;;16.08;8.00;;;14.30;99.90;;;;;;4940772;28;20034;-91
2022/10/27 09:09:03;;;;;;;17.52;7.63;;;14.30;99.90;;;;;;4931391;28;20046;-91
2022/10/27 09:12:11;;;;;;;10.73;7.03;;;14.30;99.90;;;;;;4945162;28;20043;-91
2022/10/27 09:15:07;;;;;;;12.05;7.28;;;14.40;99.90;;;;;;4947037;28;20070;-91
2022/10/27 09:18:09;;;;;;;11.98;6.75;;;14.60;99.90;;;;;;4943906;28;20046;-91
2022/10/27 09:20:41;;;;;;;10.87;6.77;;;14.70;99.90;;;;;;4973595;28;20495;-92
2022/10/27 09:23:13;;;;;;;15.77;6.80;;;14.90;99.90;;;;;;4941786;28;20046;-91
2022/10/27 09:25:40;;;;;;;10.13;5.95;;;15.00;99.90;;;;;;4944869;28;20042;-90
2022/10/27 09:28:18;;;;;;;10.15;5.45;;;15.10;99.90;;;;;;4939529;28;20058;-91
2022/10/27 09:30:46;;;;;;;10.35;6.40;;;15.20;99.90;;;;;;4944625;28;20046;-91
2022/10/27 09:33:17;;;;;;;9.10;5.88;;;15.40;99.90;;;;;;4963584;28;20046;-91
2022/10/27 09:35:43;;;;;;;8.73;5.55;;;15.40;99.90;;;;;;4944039;28;20151;-91
2022/10/27 09:38:13;;;;;;;8.43;5.03;;;15.50;99.90;;;;;;4913153;28;20714;-90
2022/10/27 09:40:39;;;;;;;9.95;5.00;;;15.60;99.90;;;;;;4947195;28;20043;-92
2022/10/27 09:43:05;;;;;;;8.20;4.93;;;15.60;99.90;;;;;;4974890;28;20034;-91
2022/10/27 09:45:31;;;;;;;9.15;4.70;;;15.70;99.90;;;;;;4936065;28;20111;-91
2022/10/27 09:48:02;;;;;;;10.45;4.90;;;15.70;99.90;;;;;;4959526;28;20046;-91
2022/10/27 09:50:42;;;;;;;10.02;5.53;;;15.80;99.90;;;;;;4975681;28;20038;-91
2022/10/27 09:53:39;;;;;;;7.57;5.13;;;15.90;99.90;;;;;;4947406;29;20133;-91
2022/10/27 09:56:08;;;;;;;7.43;4.55;;;15.90;99.90;;;;;;4954598;28;20062;-91
2022/10/27 09:58:59;;;;;;;7.65;4.72;;;15.90;99.90;;;;;;4971212;28;20059;-91
2022/10/27 10:01:48;;;;;;;11.48;4.60;;;16.00;99.90;;;;;;4945240;28;20047;-91
2022/10/27 10:04:25;;;;;;;6.90;4.15;;;16.00;99.90;;;;;;4952672;28;20111;-91
2022/10/27 10:06:54;;;;;;;8.30;4.13;;;16.10;99.90;;;;;;4972079;28;20045;-91
2022/10/27 10:09:26;;;;;;;7.53;3.97;;;16.20;99.90;;;;;;4968624;28;20052;-91
2022/10/27 10:12:18;;;;;;;7.05;3.67;;;16.20;99.90;;;;;;4953504;28;20039;-91
2022/10/27 10:14:44;;;;;;;7.35;4.10;;;16.30;99.90;;;;;;4976252;28;20455;-91
2022/10/27 10:17:38;;;;;;;8.32;3.90;;;16.40;99.90;;;;;;4957682;28;20126;-90
2022/10/27 10:20:06;;;;;;;5.57;3.88;;;16.40;99.90;;;;;;4928252;28;20054;-90
2022/10/27 10:22:34;;;;;;;6.97;3.80;;;16.50;99.90;;;;;;4952290;28;20093;-91
2022/10/27 10:25:27;;;;;;;6.25;3.70;;;16.50;99.90;;;;;;4984455;28;20038;-91
2022/10/27 10:28:02;;;;;;;10.75;3.42;;;16.60;99.90;;;;;;4952171;28;20062;-91
2022/10/27 10:30:33;;;;;;;6.35;3.63;;;16.70;99.90;;;;;;4955936;28;20037;-91
2022/10/27 10:33:01;;;;;;;9.73;3.17;;;16.80;99.90;;;;;;4958798;28;20503;-91
2022/10/27 10:35:40;;;;;;;6.05;3.47;;;16.90;99.90;;;;;;4934120;28;20174;-91
2022/10/27 10:38:40;;;;;;;6.22;2.90;;;17.00;99.90;;;;;;4951931;28;20047;-90
2022/10/27 10:41:11;;;;;;;7.15;3.50;;;17.10;99.90;;;;;;4934897;29;20540;-91
2022/10/27 10:43:38;;;;;;;9.35;3.88;;;17.10;99.90;;;;;;4958248;28;20034;-90
2022/10/27 10:46:06;;;;;;;9.43;3.53;;;17.20;99.90;;;;;;4952625;28;20063;-89
2022/10/27 10:48:46;;;;;;;8.43;3.72;;;17.30;99.90;;;;;;4947443;28;20027;-89
2022/10/27 10:51:22;;;;;;;4.80;3.35;;;17.30;99.90;;;;;;4957131;28;20062;-88
2022/10/27 10:53:50;;;;;;;8.48;3.60;;;17.30;99.90;;;;;;4979824;28;20039;-88
2022/10/27 10:56:25;;;;;;;5.85;3.45;;;17.40;99.90;;;;;;4978245;28;20043;-88
2022/10/27 10:59:09;;;;;;;9.55;3.58;;;17.40;99.90;;;;;;4955156;28;20147;-88
2022/10/27 11:02:05;;;;;;;7.63;3.22;;;17.40;99.90;;;;;;4949826;28;20031;-88
2022/10/27 11:04:38;;;;;;;6.60;2.85;;;17.40;99.90;;;;;;4926801;28;20436;-89
2022/10/27 11:07:27;;;;;;;6.20;3.20;;;17.40;99.90;;;;;;4951228;28;20052;-86
2022/10/27 11:10:17;;;;;;;6.88;3.28;;;17.40;99.90;;;;;;4964994;28;20050;-86
2022/10/27 11:12:49;;;;;;;5.93;2.60;;;17.40;99.90;;;;;;4961409;28;20050;-86
2022/10/27 11:15:21;;;;;;;;;;;17.40;99.90;;;;;;4953032;28;20043;-91
2022/10/27 11:17:50;;;;;;;7.28;3.00;;;17.50;99.90;;;;;;4966926;28;19941;-93
2022/10/27 11:20:32;;;;;;;5.93;2.55;;;17.50;99.90;;;;;;4956772;28;20058;-88
2022/10/27 11:22:59;;;;;;;7.63;2.47;;;17.60;99.90;;;;;;4949003;28;20042;-87
2022/10/27 11:25:31;;;;;;;17.70;3.00;;;17.70;99.90;;;;;;4962871;28;20397;-87
2022/10/27 11:28:26;;;;;;;10.63;2.67;;;17.70;99.90;;;;;;4943383;28;20528;-86
2022/10/27 11:31:09;;;;;;;8.38;2.63;;;17.80;99.90;;;;;;4960813;28;20039;-87
2022/10/27 11:33:48;;;;;;;3.92;2.50;;;17.90;99.90;;;;;;4982981;28;20054;-90
2022/10/27 11:36:22;;;;;;;8.38;2.63;;;18.00;99.90;;;;;;4955175;28;20040;-91
2022/10/27 11:39:03;;;;;;;5.15;2.60;;;18.00;99.90;;;;;;4950789;28;20042;-87
2022/10/27 11:41:44;;;;;;;5.63;2.72;;;18.10;99.90;;;;;;4953085;28;20042;-89
2022/10/27 11:44:33;;;;;;;6.30;2.35;;;18.10;99.90;;;;;;4968475;28;20043;-92
2022/10/27 11:47:18;;;;;;;4.30;2.33;;;18.10;99.90;;;;;;4965875;28;20066;-87
2022/10/27 11:49:56;;;;;;;7.68;2.20;;;18.10;99.90;;;;;;4950416;28;20043;-87
2022/10/27 11:52:51;;;;;;;4.60;2.17;;;18.10;99.90;;;;;;4952818;28;20038;-88
2022/10/27 11:55:28;;;;;;;5.47;2.53;;;18.00;99.90;;;;;;4966651;28;20127;-87
2022/10/27 11:58:31;;;;;;;6.45;2.60;;;18.10;99.90;;;;;;4966325;28;20120;-92
2022/10/27 12:01:15;;;;;;;4.90;2.38;;;18.10;99.90;;;;;;4979929;28;20046;-92
2022/10/27 12:04:03;;;;;;;5.00;2.53;;;18.10;99.90;;;;;;4954634;28;20050;-92
2022/10/27 12:06:37;;;;;;;3.42;2.28;;;18.00;99.90;;;;;;4952977;29;20055;-92
2022/10/27 12:09:23;;;;;;;6.65;2.50;;;18.00;99.90;;;;;;4958561;28;20039;-87
2022/10/27 12:12:01;;;;;;;8.23;2.30;;;18.00;99.90;;;;;;4943348;28;20118;-86
2022/10/27 12:14:40;;;;;;;10.18;2.60;;;18.00;99.90;;;;;;4970608;28;20042;-87
2022/10/27 12:17:09;;;;;;;6.93;2.70;;;18.00;99.90;;;;;;4948548;28;20035;-86
2022/10/27 12:19:40;;;;;;;5.22;2.75;;;18.00;99.90;;;;;;4945150;28;20038;-87
2022/10/27 12:22:35;;;;;;;8.60;2.90;;;18.00;99.90;;;;;;4979275;28;20035;-87
2022/10/27 12:25:08;;;;;;;4.15;2.95;;;18.00;99.90;;;;;;4943975;28;20094;-87
2022/10/27 12:27:38;;;;;;;7.10;2.63;;;18.10;99.90;;;;;;4970080;28;20046;-87
2022/10/27 12:30:22;;;;;;;7.45;2.25;;;18.10;99.90;;;;;;4968378;28;20043;-87
2022/10/27 12:32:58;;;;;;;9.98;2.50;;;18.10;99.90;;;;;;4963813;28;20053;-88
2022/10/27 12:35:29;;;;;;;6.63;2.45;;;18.10;99.90;;;;;;4969238;28;20045;-90
2022/10/27 12:38:12;;;;;;;6.95;2.60;;;18.10;99.90;;;;;;4958492;28;20050;-93
2022/10/27 12:41:05;;;;;;;7.13;2.53;;;18.10;99.90;;;;;;4986954;28;20042;-91
2022/10/27 12:43:43;;;;;;;4.53;1.98;;;18.20;99.90;;;;;;4962672;28;20055;-93
2022/10/27 12:46:42;;;;;;;7.68;2.33;;;18.30;99.90;;;;;;4959466;28;20054;-93
2022/10/27 12:49:37;;;;;;;5.57;2.13;;;18.30;99.90;;;;;;4970508;28;20051;-92
2022/10/27 12:52:22;;;;;;;6.13;2.50;;;18.30;99.90;;;;;;4959374;28;20046;-92
2022/10/27 12:55:15;;;;;;;6.60;2.65;;;18.40;99.90;;;;;;4955733;28;20039;-93
2022/10/27 12:57:59;;;;;;;6.10;2.10;;;18.40;99.90;;;;;;4964071;28;20043;-93
2022/10/27 13:00:25;;;;;;;7.47;2.30;;;18.40;99.90;;;;;;4956498;28;20123;-93